sensor_id;sensor_type;location;lat;lon;timestamp;temperature;humidity
76040;SHT30;64736;50.462;4.850;2024-03-06T00:02:24;6.57;88.95
76040;SHT30;64736;50.462;4.850;2024-03-06T00:04:50;6.45;89.30
76040;SHT30;64736;50.462;4.850;2024-03-06T00:07:15;6.55;89.80
76040;SHT30;64736;50.462;4.850;2024-03-06T00:09:41;6.52;89.60
76040;SHT30;64736;50.462;4.850;2024-03-06T00:12:08;6.54;89.72
76040;SHT30;64736;50.462;4.850;2024-03-06T00:14:34;6.64;89.68
76040;SHT30;64736;50.462;4.850;2024-03-06T00:17:02;6.78;89.66
76040;SHT30;64736;50.462;4.850;2024-03-06T00:19:30;6.54;89.54
76040;SHT30;64736;50.462;4.850;2024-03-06T00:21:56;6.61;89.62
76040;SHT30;64736;50.462;4.850;2024-03-06T00:24:21;6.45;89.54
76040;SHT30;64736;50.462;4.850;2024-03-06T00:26:48;6.42;89.70
76040;SHT30;64736;50.462;4.850;2024-03-06T00:29:14;6.41;89.79
76040;SHT30;64736;50.462;4.850;2024-03-06T00:31:44;6.37;89.85
76040;SHT30;64736;50.462;4.850;2024-03-06T00:34:11;6.30;90.06
76040;SHT30;64736;50.462;4.850;2024-03-06T00:36:43;6.21;90.33
76040;SHT30;64736;50.462;4.850;2024-03-06T00:39:12;6.21;90.63
76040;SHT30;64736;50.462;4.850;2024-03-06T00:41:39;6.16;91.07
76040;SHT30;64736;50.462;4.850;2024-03-06T00:44:05;6.17;90.86
76040;SHT30;64736;50.462;4.850;2024-03-06T00:46:31;6.05;91.21
76040;SHT30;64736;50.462;4.850;2024-03-06T00:48:57;6.10;90.65
76040;SHT30;64736;50.462;4.850;2024-03-06T00:51:22;6.00;91.21
76040;SHT30;64736;50.462;4.850;2024-03-06T00:53:48;5.90;91.15
76040;SHT30;64736;50.462;4.850;2024-03-06T00:56:14;5.83;91.39
76040;SHT30;64736;50.462;4.850;2024-03-06T00:58:40;5.95;91.20
76040;SHT30;64736;50.462;4.850;2024-03-06T01:01:05;5.83;90.62
76040;SHT30;64736;50.462;4.850;2024-03-06T01:03:31;6.20;89.68
76040;SHT30;64736;50.462;4.850;2024-03-06T01:05:57;6.09;90.09
76040;SHT30;64736;50.462;4.850;2024-03-06T01:08:23;6.11;89.68
76040;SHT30;64736;50.462;4.850;2024-03-06T01:10:51;5.96;90.18
76040;SHT30;64736;50.462;4.850;2024-03-06T01:13:18;5.78;90.53
76040;SHT30;64736;50.462;4.850;2024-03-06T01:15:44;5.68;91.25
76040;SHT30;64736;50.462;4.850;2024-03-06T01:18:10;5.71;90.89
76040;SHT30;64736;50.462;4.850;2024-03-06T01:20:35;5.71;91.36
76040;SHT30;64736;50.462;4.850;2024-03-06T01:23:01;5.75;91.29
76040;SHT30;64736;50.462;4.850;2024-03-06T01:25:27;5.73;91.76
76040;SHT30;64736;50.462;4.850;2024-03-06T01:27:53;5.83;91.51
76040;SHT30;64736;50.462;4.850;2024-03-06T01:30:18;5.75;91.81
76040;SHT30;64736;50.462;4.850;2024-03-06T01:32:44;5.69;92.19
76040;SHT30;64736;50.462;4.850;2024-03-06T01:35:10;5.73;92.14
76040;SHT30;64736;50.462;4.850;2024-03-06T01:37:36;5.73;91.94
76040;SHT30;64736;50.462;4.850;2024-03-06T01:40:01;5.78;91.82
76040;SHT30;64736;50.462;4.850;2024-03-06T01:42:30;5.79;91.52
76040;SHT30;64736;50.462;4.850;2024-03-06T01:44:56;5.83;91.69
76040;SHT30;64736;50.462;4.850;2024-03-06T01:47:22;5.89;91.73
76040;SHT30;64736;50.462;4.850;2024-03-06T01:49:48;6.07;91.77
76040;SHT30;64736;50.462;4.850;2024-03-06T01:52:15;6.07;90.71
76040;SHT30;64736;50.462;4.850;2024-03-06T01:54:44;6.10;91.33
76040;SHT30;64736;50.462;4.850;2024-03-06T01:57:11;5.90;91.21
76040;SHT30;64736;50.462;4.850;2024-03-06T01:59:40;5.85;91.70
76040;SHT30;64736;50.462;4.850;2024-03-06T02:02:06;5.80;91.66
76040;SHT30;64736;50.462;4.850;2024-03-06T02:04:34;5.92;91.16
76040;SHT30;64736;50.462;4.850;2024-03-06T02:07:00;5.93;91.11
76040;SHT30;64736;50.462;4.850;2024-03-06T02:09:26;5.66;91.36
76040;SHT30;64736;50.462;4.850;2024-03-06T02:11:52;5.52;91.56
76040;SHT30;64736;50.462;4.850;2024-03-06T02:14:18;5.58;91.87
76040;SHT30;64736;50.462;4.850;2024-03-06T02:16:44;5.54;91.66
76040;SHT30;64736;50.462;4.850;2024-03-06T02:19:09;5.68;91.28
76040;SHT30;64736;50.462;4.850;2024-03-06T02:21:35;5.31;92.84
76040;SHT30;64736;50.462;4.850;2024-03-06T02:24:01;5.35;92.37
76040;SHT30;64736;50.462;4.850;2024-03-06T02:26:26;5.11;93.36
76040;SHT30;64736;50.462;4.850;2024-03-06T02:28:54;5.30;92.34
76040;SHT30;64736;50.462;4.850;2024-03-06T02:31:20;5.27;92.49
76040;SHT30;64736;50.462;4.850;2024-03-06T02:33:47;5.24;92.48
76040;SHT30;64736;50.462;4.850;2024-03-06T02:36:17;5.10;92.70
76040;SHT30;64736;50.462;4.850;2024-03-06T02:38:43;5.06;92.15
76040;SHT30;64736;50.462;4.850;2024-03-06T02:41:10;5.20;91.76
76040;SHT30;64736;50.462;4.850;2024-03-06T02:43:36;5.01;91.89
76040;SHT30;64736;50.462;4.850;2024-03-06T02:46:03;5.09;91.53
76040;SHT30;64736;50.462;4.850;2024-03-06T02:48:28;4.89;91.99
76040;SHT30;64736;50.462;4.850;2024-03-06T02:50:55;4.90;91.82
76040;SHT30;64736;50.462;4.850;2024-03-06T02:53:21;4.82;92.74
76040;SHT30;64736;50.462;4.850;2024-03-06T02:55:47;4.77;92.24
76040;SHT30;64736;50.462;4.850;2024-03-06T02:58:13;4.75;92.50
76040;SHT30;64736;50.462;4.850;2024-03-06T03:00:42;4.73;92.52
76040;SHT30;64736;50.462;4.850;2024-03-06T03:03:08;4.58;93.24
76040;SHT30;64736;50.462;4.850;2024-03-06T03:05:35;4.80;92.83
76040;SHT30;64736;50.462;4.850;2024-03-06T03:08:01;4.77;92.92
76040;SHT30;64736;50.462;4.850;2024-03-06T03:10:29;4.75;92.61
76040;SHT30;64736;50.462;4.850;2024-03-06T03:12:55;4.62;93.40
76040;SHT30;64736;50.462;4.850;2024-03-06T03:15:20;4.65;93.53
76040;SHT30;64736;50.462;4.850;2024-03-06T03:17:46;4.59;92.79
76040;SHT30;64736;50.462;4.850;2024-03-06T03:20:12;4.61;93.01
76040;SHT30;64736;50.462;4.850;2024-03-06T03:22:39;4.62;93.04
76040;SHT30;64736;50.462;4.850;2024-03-06T03:25:09;4.35;93.53
76040;SHT30;64736;50.462;4.850;2024-03-06T03:27:39;4.38;94.10
76040;SHT30;64736;50.462;4.850;2024-03-06T03:30:11;4.22;94.34
76040;SHT30;64736;50.462;4.850;2024-03-06T03:32:37;4.42;93.77
76040;SHT30;64736;50.462;4.850;2024-03-06T03:35:06;4.21;94.19
76040;SHT30;64736;50.462;4.850;2024-03-06T03:37:33;4.44;93.64
76040;SHT30;64736;50.462;4.850;2024-03-06T03:39:59;4.21;94.15
76040;SHT30;64736;50.462;4.850;2024-03-06T03:42:25;4.27;93.65
76040;SHT30;64736;50.462;4.850;2024-03-06T03:44:51;4.22;93.88
76040;SHT30;64736;50.462;4.850;2024-03-06T03:47:17;4.21;94.39
76040;SHT30;64736;50.462;4.850;2024-03-06T03:49:43;4.13;93.98
76040;SHT30;64736;50.462;4.850;2024-03-06T03:52:09;3.93;94.62
76040;SHT30;64736;50.462;4.850;2024-03-06T03:54:34;3.91;94.92
76040;SHT30;64736;50.462;4.850;2024-03-06T03:57:00;4.04;94.54
76040;SHT30;64736;50.462;4.850;2024-03-06T03:59:26;3.91;95.03
76040;SHT30;64736;50.462;4.850;2024-03-06T04:01:52;3.90;95.81
76040;SHT30;64736;50.462;4.850;2024-03-06T04:04:18;4.03;94.65
76040;SHT30;64736;50.462;4.850;2024-03-06T04:06:43;3.91;95.00
76040;SHT30;64736;50.462;4.850;2024-03-06T04:09:11;4.03;95.09
76040;SHT30;64736;50.462;4.850;2024-03-06T04:11:37;3.89;95.35
76040;SHT30;64736;50.462;4.850;2024-03-06T04:14:04;3.80;95.42
76040;SHT30;64736;50.462;4.850;2024-03-06T04:16:29;3.87;95.71
76040;SHT30;64736;50.462;4.850;2024-03-06T04:18:55;3.90;95.29
76040;SHT30;64736;50.462;4.850;2024-03-06T04:21:21;3.77;95.32
76040;SHT30;64736;50.462;4.850;2024-03-06T04:23:48;3.70;95.79
76040;SHT30;64736;50.462;4.850;2024-03-06T04:26:14;3.69;95.79
76040;SHT30;64736;50.462;4.850;2024-03-06T04:28:40;3.66;96.08
76040;SHT30;64736;50.462;4.850;2024-03-06T04:31:06;3.76;95.72
76040;SHT30;64736;50.462;4.850;2024-03-06T04:33:32;3.69;95.46
76040;SHT30;64736;50.462;4.850;2024-03-06T04:35:58;3.55;95.83
76040;SHT30;64736;50.462;4.850;2024-03-06T04:38:23;3.56;96.36
76040;SHT30;64736;50.462;4.850;2024-03-06T04:40:49;3.55;96.19
76040;SHT30;64736;50.462;4.850;2024-03-06T04:43:15;3.52;96.38
76040;SHT30;64736;50.462;4.850;2024-03-06T04:45:40;3.63;95.76
76040;SHT30;64736;50.462;4.850;2024-03-06T04:48:07;3.58;95.71
76040;SHT30;64736;50.462;4.850;2024-03-06T04:50:33;3.72;95.32
76040;SHT30;64736;50.462;4.850;2024-03-06T04:52:58;3.51;95.28
76040;SHT30;64736;50.462;4.850;2024-03-06T04:55:24;3.49;95.62
76040;SHT30;64736;50.462;4.850;2024-03-06T04:57:51;3.45;95.90
76040;SHT30;64736;50.462;4.850;2024-03-06T05:00:18;3.51;96.17
76040;SHT30;64736;50.462;4.850;2024-03-06T05:02:44;3.54;95.91
76040;SHT30;64736;50.462;4.850;2024-03-06T05:05:10;3.51;96.38
76040;SHT30;64736;50.462;4.850;2024-03-06T05:07:36;3.59;96.15
76040;SHT30;64736;50.462;4.850;2024-03-06T05:10:02;3.62;95.53
76040;SHT30;64736;50.462;4.850;2024-03-06T05:12:28;3.46;96.02
76040;SHT30;64736;50.462;4.850;2024-03-06T05:14:55;3.39;96.17
76040;SHT30;64736;50.462;4.850;2024-03-06T05:17:21;3.51;96.55
76040;SHT30;64736;50.462;4.850;2024-03-06T05:19:47;3.55;95.62
76040;SHT30;64736;50.462;4.850;2024-03-06T05:22:15;3.34;96.24
76040;SHT30;64736;50.462;4.850;2024-03-06T05:24:44;3.48;96.23
76040;SHT30;64736;50.462;4.850;2024-03-06T05:27:10;3.38;96.37
76040;SHT30;64736;50.462;4.850;2024-03-06T05:29:39;3.45;96.40
76040;SHT30;64736;50.462;4.850;2024-03-06T05:32:05;3.46;96.58
76040;SHT30;64736;50.462;4.850;2024-03-06T05:34:33;3.34;96.34
76040;SHT30;64736;50.462;4.850;2024-03-06T05:36:59;3.52;95.91
76040;SHT30;64736;50.462;4.850;2024-03-06T05:39:27;3.56;95.87
76040;SHT30;64736;50.462;4.850;2024-03-06T05:41:59;3.49;95.62
76040;SHT30;64736;50.462;4.850;2024-03-06T05:44:25;3.60;95.40
76040;SHT30;64736;50.462;4.850;2024-03-06T05:46:52;3.46;95.32
76040;SHT30;64736;50.462;4.850;2024-03-06T05:49:17;3.43;95.59
76040;SHT30;64736;50.462;4.850;2024-03-06T05:51:43;3.43;95.64
76040;SHT30;64736;50.462;4.850;2024-03-06T05:54:09;3.43;95.64
76040;SHT30;64736;50.462;4.850;2024-03-06T05:56:35;3.58;95.43
76040;SHT30;64736;50.462;4.850;2024-03-06T05:59:01;3.60;94.95
76040;SHT30;64736;50.462;4.850;2024-03-06T06:01:36;3.36;95.27
76040;SHT30;64736;50.462;4.850;2024-03-06T06:04:02;3.49;95.67
76040;SHT30;64736;50.462;4.850;2024-03-06T06:06:27;3.42;95.62
76040;SHT30;64736;50.462;4.850;2024-03-06T06:08:53;3.48;95.53
76040;SHT30;64736;50.462;4.850;2024-03-06T06:11:19;3.58;95.05
76040;SHT30;64736;50.462;4.850;2024-03-06T06:13:45;3.38;95.55
76040;SHT30;64736;50.462;4.850;2024-03-06T06:16:12;3.39;95.88
76040;SHT30;64736;50.462;4.850;2024-03-06T06:18:40;3.46;95.30
76040;SHT30;64736;50.462;4.850;2024-03-06T06:21:07;3.36;95.62
76040;SHT30;64736;50.462;4.850;2024-03-06T06:23:36;3.35;95.87
76040;SHT30;64736;50.462;4.850;2024-03-06T06:26:02;3.28;96.09
76040;SHT30;64736;50.462;4.850;2024-03-06T06:28:28;3.40;95.70
76040;SHT30;64736;50.462;4.850;2024-03-06T06:30:54;3.39;96.02
76040;SHT30;64736;50.462;4.850;2024-03-06T06:33:20;3.25;96.01
76040;SHT30;64736;50.462;4.850;2024-03-06T06:35:47;3.46;95.87
76040;SHT30;64736;50.462;4.850;2024-03-06T06:38:12;3.52;95.93
76040;SHT30;64736;50.462;4.850;2024-03-06T06:40:38;3.60;95.68
76040;SHT30;64736;50.462;4.850;2024-03-06T06:43:06;3.63;95.36
76040;SHT30;64736;50.462;4.850;2024-03-06T06:45:32;3.65;95.26
76040;SHT30;64736;50.462;4.850;2024-03-06T06:47:57;3.63;94.82
76040;SHT30;64736;50.462;4.850;2024-03-06T06:50:23;3.54;95.41
76040;SHT30;64736;50.462;4.850;2024-03-06T06:52:51;3.65;95.26
76040;SHT30;64736;50.462;4.850;2024-03-06T06:55:17;3.75;94.38
76040;SHT30;64736;50.462;4.850;2024-03-06T06:57:43;3.69;94.87
76040;SHT30;64736;50.462;4.850;2024-03-06T07:00:09;3.59;94.65
76040;SHT30;64736;50.462;4.850;2024-03-06T07:02:41;3.46;95.11
76040;SHT30;64736;50.462;4.850;2024-03-06T07:05:08;3.52;95.00
76040;SHT30;64736;50.462;4.850;2024-03-06T07:07:38;3.48;95.30
76040;SHT30;64736;50.462;4.850;2024-03-06T07:10:07;3.46;95.49
76040;SHT30;64736;50.462;4.850;2024-03-06T07:12:33;3.49;95.39
76040;SHT30;64736;50.462;4.850;2024-03-06T07:15:01;3.40;95.97
76040;SHT30;64736;50.462;4.850;2024-03-06T07:17:28;3.51;95.96
76040;SHT30;64736;50.462;4.850;2024-03-06T07:19:54;3.60;95.40
76040;SHT30;64736;50.462;4.850;2024-03-06T07:22:19;3.62;95.57
76040;SHT30;64736;50.462;4.850;2024-03-06T07:24:45;3.39;95.93
76040;SHT30;64736;50.462;4.850;2024-03-06T07:27:11;3.45;96.07
76040;SHT30;64736;50.462;4.850;2024-03-06T07:29:38;3.63;95.63
76040;SHT30;64736;50.462;4.850;2024-03-06T07:32:03;3.65;95.95
76040;SHT30;64736;50.462;4.850;2024-03-06T07:34:33;3.69;95.37
76040;SHT30;64736;50.462;4.850;2024-03-06T07:36:59;3.62;95.98
76040;SHT30;64736;50.462;4.850;2024-03-06T07:39:25;3.72;95.42
76040;SHT30;64736;50.462;4.850;2024-03-06T07:41:51;3.82;95.71
76040;SHT30;64736;50.462;4.850;2024-03-06T07:44:16;3.86;95.07
76040;SHT30;64736;50.462;4.850;2024-03-06T07:46:42;3.89;95.07
76040;SHT30;64736;50.462;4.850;2024-03-06T07:49:08;3.86;95.19
76040;SHT30;64736;50.462;4.850;2024-03-06T07:51:34;3.93;95.19
76040;SHT30;64736;50.462;4.850;2024-03-06T07:54:01;3.75;95.22
76040;SHT30;64736;50.462;4.850;2024-03-06T07:56:27;3.98;95.11
76040;SHT30;64736;50.462;4.850;2024-03-06T07:58:53;3.90;95.17
76040;SHT30;64736;50.462;4.850;2024-03-06T08:01:20;3.69;95.75
76040;SHT30;64736;50.462;4.850;2024-03-06T08:03:49;3.75;95.84
76040;SHT30;64736;50.462;4.850;2024-03-06T08:06:15;3.96;95.59
76040;SHT30;64736;50.462;4.850;2024-03-06T08:08:45;4.07;95.19
76040;SHT30;64736;50.462;4.850;2024-03-06T08:11:11;4.03;94.93
76040;SHT30;64736;50.462;4.850;2024-03-06T08:13:37;4.13;95.20
76040;SHT30;64736;50.462;4.850;2024-03-06T08:16:04;4.11;95.01
76040;SHT30;64736;50.462;4.850;2024-03-06T08:18:30;4.18;95.26
76040;SHT30;64736;50.462;4.850;2024-03-06T08:20:57;4.22;95.13
76040;SHT30;64736;50.462;4.850;2024-03-06T08:23:23;4.25;95.04
76040;SHT30;64736;50.462;4.850;2024-03-06T08:25:50;4.35;94.88
76040;SHT30;64736;50.462;4.850;2024-03-06T08:28:16;4.35;94.83
76040;SHT30;64736;50.462;4.850;2024-03-06T08:30:42;4.46;94.57
76040;SHT30;64736;50.462;4.850;2024-03-06T08:33:10;4.42;94.76
76040;SHT30;64736;50.462;4.850;2024-03-06T08:35:35;4.46;94.82
76040;SHT30;64736;50.462;4.850;2024-03-06T08:38:01;4.48;95.18
76040;SHT30;64736;50.462;4.850;2024-03-06T08:40:29;4.55;94.93
76040;SHT30;64736;50.462;4.850;2024-03-06T08:42:55;4.54;94.99
76040;SHT30;64736;50.462;4.850;2024-03-06T08:45:22;4.48;95.37
76040;SHT30;64736;50.462;4.850;2024-03-06T08:47:51;4.40;96.04
76040;SHT30;64736;50.462;4.850;2024-03-06T08:50:20;4.72;95.82
76040;SHT30;64736;50.462;4.850;2024-03-06T08:52:46;4.75;95.46
76040;SHT30;64736;50.462;4.850;2024-03-06T08:55:12;4.92;94.93
76040;SHT30;64736;50.462;4.850;2024-03-06T08:57:38;4.93;94.99
76040;SHT30;64736;50.462;4.850;2024-03-06T09:00:06;5.10;94.03
76040;SHT30;64736;50.462;4.850;2024-03-06T09:02:38;5.32;93.19
76040;SHT30;64736;50.462;4.850;2024-03-06T09:05:06;5.27;93.69
76040;SHT30;64736;50.462;4.850;2024-03-06T09:07:32;5.31;93.91
76040;SHT30;64736;50.462;4.850;2024-03-06T09:10:04;5.41;92.53
76040;SHT30;64736;50.462;4.850;2024-03-06T09:12:31;5.56;91.78
76040;SHT30;64736;50.462;4.850;2024-03-06T09:14:57;5.75;91.40
76040;SHT30;64736;50.462;4.850;2024-03-06T09:17:23;5.89;90.69
76040;SHT30;64736;50.462;4.850;2024-03-06T09:19:48;6.07;89.30
76040;SHT30;64736;50.462;4.850;2024-03-06T09:22:14;6.14;89.23
76040;SHT30;64736;50.462;4.850;2024-03-06T09:24:40;6.33;88.24
76040;SHT30;64736;50.462;4.850;2024-03-06T09:27:05;6.51;88.70
76040;SHT30;64736;50.462;4.850;2024-03-06T09:29:31;6.64;87.62
76040;SHT30;64736;50.462;4.850;2024-03-06T09:31:57;6.75;87.84
76040;SHT30;64736;50.462;4.850;2024-03-06T09:34:24;6.82;87.55
76040;SHT30;64736;50.462;4.850;2024-03-06T09:36:50;6.96;86.91
76040;SHT30;64736;50.462;4.850;2024-03-06T09:39:17;7.19;85.54
76040;SHT30;64736;50.462;4.850;2024-03-06T09:41:46;7.28;85.10
76040;SHT30;64736;50.462;4.850;2024-03-06T09:44:13;7.44;84.67
76040;SHT30;64736;50.462;4.850;2024-03-06T09:46:43;7.54;84.58
76040;SHT30;64736;50.462;4.850;2024-03-06T09:49:13;7.57;83.66
76040;SHT30;64736;50.462;4.850;2024-03-06T09:51:43;7.75;83.66
76040;SHT30;64736;50.462;4.850;2024-03-06T09:54:16;7.95;83.10
76040;SHT30;64736;50.462;4.850;2024-03-06T09:56:42;8.34;81.31
76040;SHT30;64736;50.462;4.850;2024-03-06T09:59:09;10.05;76.46
76040;SHT30;64736;50.462;4.850;2024-03-06T10:01:49;10.64;75.83
76040;SHT30;64736;50.462;4.850;2024-03-06T10:06:48;14.63;61.61
76040;SHT30;64736;50.462;4.850;2024-03-06T10:09:18;14.06;60.70
76040;SHT30;64736;50.462;4.850;2024-03-06T10:11:44;12.81;66.28
76040;SHT30;64736;50.462;4.850;2024-03-06T10:14:10;13.72;64.19
76040;SHT30;64736;50.462;4.850;2024-03-06T10:16:36;13.67;62.63
76040;SHT30;64736;50.462;4.850;2024-03-06T10:19:15;17.75;52.63
76040;SHT30;64736;50.462;4.850;2024-03-06T10:21:47;18.20;50.83
76040;SHT30;64736;50.462;4.850;2024-03-06T10:24:24;14.95;56.61
76040;SHT30;64736;50.462;4.850;2024-03-06T10:26:51;13.47;62.01
76040;SHT30;64736;50.462;4.850;2024-03-06T10:29:21;15.78;58.54
76040;SHT30;64736;50.462;4.850;2024-03-06T10:31:57;15.91;54.38
76040;SHT30;64736;50.462;4.850;2024-03-06T10:34:28;18.93;49.86
76040;SHT30;64736;50.462;4.850;2024-03-06T10:36:59;14.61;56.19
76040;SHT30;64736;50.462;4.850;2024-03-06T10:39:25;17.21;51.60
76040;SHT30;64736;50.462;4.850;2024-03-06T10:41:55;15.43;56.55
76040;SHT30;64736;50.462;4.850;2024-03-06T10:44:26;14.77;56.47
76040;SHT30;64736;50.462;4.850;2024-03-06T10:47:02;15.54;55.10
76040;SHT30;64736;50.462;4.850;2024-03-06T10:49:30;16.45;53.72
76040;SHT30;64736;50.462;4.850;2024-03-06T10:54:31;21.01;44.20
76040;SHT30;64736;50.462;4.850;2024-03-06T10:57:02;16.32;52.42
76040;SHT30;64736;50.462;4.850;2024-03-06T10:59:29;15.05;56.79
76040;SHT30;64736;50.462;4.850;2024-03-06T11:01:58;14.30;58.47
76040;SHT30;64736;50.462;4.850;2024-03-06T11:04:29;15.30;57.10
76040;SHT30;64736;50.462;4.850;2024-03-06T11:06:56;17.62;51.05
76040;SHT30;64736;50.462;4.850;2024-03-06T11:09:22;14.85;54.86
76040;SHT30;64736;50.462;4.850;2024-03-06T11:11:49;14.91;55.09
76040;SHT30;64736;50.462;4.850;2024-03-06T11:14:16;16.33;51.83
76040;SHT30;64736;50.462;4.850;2024-03-06T11:17:11;16.28;52.35
76040;SHT30;64736;50.462;4.850;2024-03-06T11:28:18;16.14;54.41
76040;SHT30;64736;50.462;4.850;2024-03-06T11:30:48;15.74;51.79
76040;SHT30;64736;50.462;4.850;2024-03-06T11:33:21;19.49;42.55
76040;SHT30;64736;50.462;4.850;2024-03-06T11:38:56;16.01;49.12
76040;SHT30;64736;50.462;4.850;2024-03-06T11:41:24;19.67;39.89
76040;SHT30;64736;50.462;4.850;2024-03-06T11:43:51;16.17;48.07
76040;SHT30;64736;50.462;4.850;2024-03-06T11:52:44;15.94;53.99
76040;SHT30;64736;50.462;4.850;2024-03-06T11:54:51;21.72;42.45
76040;SHT30;64736;50.462;4.850;2024-03-06T11:57:17;17.63;49.08
76040;SHT30;64736;50.462;4.850;2024-03-06T12:00:03;18.03;48.85
76040;SHT30;64736;50.462;4.850;2024-03-06T12:02:32;17.13;50.39
76040;SHT30;64736;50.462;4.850;2024-03-06T12:05:02;17.96;49.79
76040;SHT30;64736;50.462;4.850;2024-03-06T12:07:28;19.16;46.13
76040;SHT30;64736;50.462;4.850;2024-03-06T12:09:54;20.83;44.79
76040;SHT30;64736;50.462;4.850;2024-03-06T12:12:19;20.13;40.83
76040;SHT30;64736;50.462;4.850;2024-03-06T12:14:58;22.11;39.42
76040;SHT30;64736;50.462;4.850;2024-03-06T12:17:29;23.54;36.11
76040;SHT30;64736;50.462;4.850;2024-03-06T12:19:56;24.47;34.53
76040;SHT30;64736;50.462;4.850;2024-03-06T12:22:26;25.98;32.20
76040;SHT30;64736;50.462;4.850;2024-03-06T12:24:59;26.00;32.29
76040;SHT30;64736;50.462;4.850;2024-03-06T12:27:25;25.98;32.03
76040;SHT30;64736;50.462;4.850;2024-03-06T12:29:52;24.71;32.58
76040;SHT30;64736;50.462;4.850;2024-03-06T12:32:19;21.67;36.95
76040;SHT30;64736;50.462;4.850;2024-03-06T12:34:58;23.79;34.84
76040;SHT30;64736;50.462;4.850;2024-03-06T12:37:32;20.98;37.80
76040;SHT30;64736;50.462;4.850;2024-03-06T12:39:58;19.64;40.48
76040;SHT30;64736;50.462;4.850;2024-03-06T12:42:24;19.30;42.72
76040;SHT30;64736;50.462;4.850;2024-03-06T12:44:50;17.72;44.19
76040;SHT30;64736;50.462;4.850;2024-03-06T12:47:15;17.87;41.68
76040;SHT30;64736;50.462;4.850;2024-03-06T12:49:41;16.24;47.23
76040;SHT30;64736;50.462;4.850;2024-03-06T12:52:07;15.15;49.58
76040;SHT30;64736;50.462;4.850;2024-03-06T12:54:34;16.60;47.60
76040;SHT30;64736;50.462;4.850;2024-03-06T12:57:00;17.83;44.28
76040;SHT30;64736;50.462;4.850;2024-03-06T12:59:26;19.49;41.10
76040;SHT30;64736;50.462;4.850;2024-03-06T13:01:51;18.36;42.78
76040;SHT30;64736;50.462;4.850;2024-03-06T13:04:18;14.82;49.50
76040;SHT30;64736;50.462;4.850;2024-03-06T13:06:43;15.09;50.59
76040;SHT30;64736;50.462;4.850;2024-03-06T13:09:10;17.48;46.19
76040;SHT30;64736;50.462;4.850;2024-03-06T13:11:36;22.32;36.81
76040;SHT30;64736;50.462;4.850;2024-03-06T13:14:02;22.92;35.03
76040;SHT30;64736;50.462;4.850;2024-03-06T13:16:27;19.00;40.61
76040;SHT30;64736;50.462;4.850;2024-03-06T13:18:54;18.52;40.92
76040;SHT30;64736;50.462;4.850;2024-03-06T13:21:23;16.97;42.83
76040;SHT30;64736;50.462;4.850;2024-03-06T13:23:49;16.91;43.83
76040;SHT30;64736;50.462;4.850;2024-03-06T13:26:14;18.99;41.00
76040;SHT30;64736;50.462;4.850;2024-03-06T13:28:40;18.37;41.87
76040;SHT30;64736;50.462;4.850;2024-03-06T13:31:07;16.81;43.87
76040;SHT30;64736;50.462;4.850;2024-03-06T13:33:33;15.93;45.16
76040;SHT30;64736;50.462;4.850;2024-03-06T13:35:59;17.21;44.62
76040;SHT30;64736;50.462;4.850;2024-03-06T13:38:27;17.45;43.93
76040;SHT30;64736;50.462;4.850;2024-03-06T13:40:53;18.49;42.04
76040;SHT30;64736;50.462;4.850;2024-03-06T13:43:19;16.93;45.29
76040;SHT30;64736;50.462;4.850;2024-03-06T13:45:50;19.67;41.11
76040;SHT30;64736;50.462;4.850;2024-03-06T13:48:16;20.70;39.40
76040;SHT30;64736;50.462;4.850;2024-03-06T13:50:45;22.25;35.09
76040;SHT30;64736;50.462;4.850;2024-03-06T13:53:12;24.21;33.27
76040;SHT30;64736;50.462;4.850;2024-03-06T13:55:38;22.56;34.61
76040;SHT30;64736;50.462;4.850;2024-03-06T13:58:03;23.52;33.52
76040;SHT30;64736;50.462;4.850;2024-03-06T14:00:29;21.72;37.35
76040;SHT30;64736;50.462;4.850;2024-03-06T14:02:55;23.54;33.62
76040;SHT30;64736;50.462;4.850;2024-03-06T14:05:21;22.22;34.48
76040;SHT30;64736;50.462;4.850;2024-03-06T14:07:51;22.11;35.20
76040;SHT30;64736;50.462;4.850;2024-03-06T14:10:17;22.56;34.35
76040;SHT30;64736;50.462;4.850;2024-03-06T14:12:47;19.02;40.53
76040;SHT30;64736;50.462;4.850;2024-03-06T14:15:13;20.71;38.23
76040;SHT30;64736;50.462;4.850;2024-03-06T14:17:40;21.62;35.84
76040;SHT30;64736;50.462;4.850;2024-03-06T14:20:06;20.02;38.04
76040;SHT30;64736;50.462;4.850;2024-03-06T14:22:31;17.70;43.00
76040;SHT30;64736;50.462;4.850;2024-03-06T14:24:57;19.60;39.71
76040;SHT30;64736;50.462;4.850;2024-03-06T14:27:23;19.53;39.39
76040;SHT30;64736;50.462;4.850;2024-03-06T14:29:49;18.59;40.81
76040;SHT30;64736;50.462;4.850;2024-03-06T14:32:16;18.40;42.35
76040;SHT30;64736;50.462;4.850;2024-03-06T14:34:44;18.37;42.57
76040;SHT30;64736;50.462;4.850;2024-03-06T14:37:10;17.66;43.70
76040;SHT30;64736;50.462;4.850;2024-03-06T14:39:36;18.78;41.33
76040;SHT30;64736;50.462;4.850;2024-03-06T14:42:02;18.71;41.66
76040;SHT30;64736;50.462;4.850;2024-03-06T14:44:29;17.38;42.93
76040;SHT30;64736;50.462;4.850;2024-03-06T14:46:56;16.88;44.59
76040;SHT30;64736;50.462;4.850;2024-03-06T14:49:22;17.18;44.58
76040;SHT30;64736;50.462;4.850;2024-03-06T14:51:48;16.30;44.63
76040;SHT30;64736;50.462;4.850;2024-03-06T14:54:13;15.06;49.57
76040;SHT30;64736;50.462;4.850;2024-03-06T14:56:40;13.85;54.09
76040;SHT30;64736;50.462;4.850;2024-03-06T14:59:06;13.55;55.46
76040;SHT30;64736;50.462;4.850;2024-03-06T15:01:32;13.59;55.29
76040;SHT30;64736;50.462;4.850;2024-03-06T15:03:58;13.61;55.15
76040;SHT30;64736;50.462;4.850;2024-03-06T15:06:25;12.82;57.64
76040;SHT30;64736;50.462;4.850;2024-03-06T15:08:51;12.83;58.68
76040;SHT30;64736;50.462;4.850;2024-03-06T15:11:19;13.03;58.88
76040;SHT30;64736;50.462;4.850;2024-03-06T15:13:46;12.99;59.11
76040;SHT30;64736;50.462;4.850;2024-03-06T15:16:12;12.88;59.21
76040;SHT30;64736;50.462;4.850;2024-03-06T15:18:38;12.92;59.70
76040;SHT30;64736;50.462;4.850;2024-03-06T15:21:04;12.40;60.19
76040;SHT30;64736;50.462;4.850;2024-03-06T15:23:30;12.33;60.96
76040;SHT30;64736;50.462;4.850;2024-03-06T15:25:58;12.20;60.50
76040;SHT30;64736;50.462;4.850;2024-03-06T15:28:24;12.46;61.06
76040;SHT30;64736;50.462;4.850;2024-03-06T15:30:49;12.23;61.86
76040;SHT30;64736;50.462;4.850;2024-03-06T15:33:16;12.33;62.34
76040;SHT30;64736;50.462;4.850;2024-03-06T15:35:42;12.04;61.97
76040;SHT30;64736;50.462;4.850;2024-03-06T15:38:09;11.89;62.44
76040;SHT30;64736;50.462;4.850;2024-03-06T15:40:35;11.82;62.67
76040;SHT30;64736;50.462;4.850;2024-03-06T15:43:01;12.00;62.32
76040;SHT30;64736;50.462;4.850;2024-03-06T15:45:27;11.97;62.34
76040;SHT30;64736;50.462;4.850;2024-03-06T15:47:53;11.82;62.42
76040;SHT30;64736;50.462;4.850;2024-03-06T15:50:18;11.89;62.43
76040;SHT30;64736;50.462;4.850;2024-03-06T15:52:44;11.72;62.94
76040;SHT30;64736;50.462;4.850;2024-03-06T15:55:10;11.76;62.46
76040;SHT30;64736;50.462;4.850;2024-03-06T15:57:36;11.62;62.26
76040;SHT30;64736;50.462;4.850;2024-03-06T16:00:06;11.63;62.57
76040;SHT30;64736;50.462;4.850;2024-03-06T16:02:33;11.65;62.27